Time;durP1;ratioP1;P1;durP2;ratioP2;P2;SDS_P1;SDS_P2;PMS_P1;PMS_P2;Temp;Humidity;BMP_temperature;BMP_pressure;BME280_temperature;BME280_humidity;BME280_pressure;Samples;Min_cycle;Max_cycle;Signal;HPM_P1;HPM_P2
2023/10/28 00:00:25;;;;;;;;;;;;;;;8.45;100.00;94989.94;5086512;28;20277;-72
2023/10/28 00:02:51;;;;;;;;;;;;;;;8.45;100.00;94992.56;5087117;28;20123;-78
2023/10/28 00:05:17;;;;;;;;;;;;;;;8.44;100.00;94989.16;5086938;28;19961;-72
2023/10/28 00:07:43;;;;;;;;;;;;;;;8.41;100.00;94987.00;5086930;28;19954;-71
2023/10/28 00:10:09;;;;;;;;;;;;;;;8.41;100.00;94996.66;5086418;28;19959;-71
2023/10/28 00:12:36;;;;;;;;;;;;;;;8.38;100.00;94994.50;5086544;28;19956;-71
2023/10/28 00:15:02;;;;;;;;;;;;;;;8.38;100.00;95002.31;5085733;28;19969;-71
2023/10/28 00:17:29;;;;;;;;;;;;;;;8.36;100.00;95002.59;5086858;28;19946;-71
2023/10/28 00:19:55;;;;;;;;;;;;;;;8.37;100.00;95000.75;5086374;28;20021;-71
2023/10/28 00:22:22;;;;;;;;;;;;;;;8.37;100.00;95008.59;5085497;28;20230;-71
2023/10/28 00:24:48;;;;;;;;;;;;;;;8.36;100.00;95001.78;5086526;28;19964;-79
2023/10/28 00:27:14;;;;;;;;;;;;;;;8.36;100.00;95001.78;5085328;28;19952;-78
2023/10/28 00:29:40;;;;;;;;;;;;;;;8.34;100.00;95007.25;5085973;28;19953;-79
2023/10/28 00:32:06;;;;;;;;;;;;;;;8.32;100.00;95010.09;5086273;28;19959;-79
2023/10/28 00:34:32;;;;;;;;;;;;;;;8.32;100.00;95009.31;5085118;28;19983;-79
2023/10/28 00:36:58;;;;;;;;;;;;;;;8.32;100.00;95022.38;5086416;28;19960;-78
2023/10/28 00:39:24;;;;;;;;;;;;;;;8.33;100.00;95019.50;5086094;28;19960;-73
2023/10/28 00:41:50;;;;;;;;;;;;;;;8.35;100.00;95027.13;5068627;28;19947;-71
2023/10/28 00:44:16;;;;;;;;;;;;;;;8.36;100.00;95026.09;5086250;28;20030;-71
2023/10/28 00:46:42;;;;;;;;;;;;;;;8.37;100.00;95026.88;5086370;28;20227;-71
2023/10/28 00:49:08;;;;;;;;;;;;;;;8.36;100.00;95030.50;5085768;28;19959;-71
2023/10/28 00:51:35;;;;;;;;;;;;;;;8.34;100.00;95031.56;5084962;28;19968;-70
2023/10/28 00:54:01;;;;;;;;;;;;;;;8.34;100.00;95036.00;5086152;28;19956;-70
2023/10/28 00:56:28;;;;;;;;;;;;;;;8.34;100.00;95030.78;5084874;28;19961;-69
2023/10/28 00:58:54;;;;;;;;;;;;;;;8.33;100.00;95045.63;5085358;28;19956;-71
2023/10/28 01:01:20;;;;;;;;;;;;;;;8.32;100.00;95044.06;5085721;28;19954;-72
2023/10/28 01:03:46;;;;;;;;;;;;;;;8.30;100.00;95048.72;5085952;28;19965;-71
2023/10/28 01:06:12;;;;;;;;;;;;;;;8.31;100.00;95046.91;5085916;28;19953;-71
2023/10/28 01:08:38;;;;;;;;;;;;;;;8.29;100.00;95039.31;5085773;28;19957;-71
2023/10/28 01:11:04;;;;;;;;;;;;;;;8.29;100.00;95038.50;5085594;28;19957;-72
2023/10/28 01:13:30;;;;;;;;;;;;;;;8.28;100.00;95045.56;5085729;28;20000;-71
2023/10/28 01:15:59;;;;;;;;;;;;;;;8.26;100.00;95047.63;5085564;28;19949;-72
2023/10/28 01:18:24;;;;;;;;;;;;;;;8.24;100.00;95047.06;5084503;28;19957;-72
2023/10/28 01:20:50;;;;;;;;;;;;;;;8.23;100.00;95050.72;5083965;28;19967;-71
2023/10/28 01:23:16;;;;;;;;;;;;;;;8.24;100.00;95054.91;5085160;28;19960;-71
2023/10/28 01:25:42;;;;;;;;;;;;;;;8.21;100.00;95055.38;5084254;28;19954;-72
2023/10/28 01:28:08;;;;;;;;;;;;;;;8.20;100.00;95047.78;5083760;28;19955;-71
2023/10/28 01:30:34;;;;;;;;;;;;;;;8.20;100.00;95039.94;5085157;28;19966;-71
2023/10/28 01:33:00;;;;;;;;;;;;;;;8.19;100.00;95052.22;5085043;28;19970;-71
2023/10/28 01:35:26;;;;;;;;;;;;;;;8.20;100.00;95047.78;5085118;28;19954;-72
2023/10/28 01:37:51;;;;;;;;;;;;;;;8.20;100.00;95053.00;5085166;28;20235;-70
2023/10/28 01:40:19;;;;;;;;;;;;;;;8.20;100.00;95048.56;5083724;28;19963;-70
2023/10/28 01:42:45;;;;;;;;;;;;;;;8.22;100.00;95061.38;5083520;28;19942;-70
2023/10/28 01:45:11;;;;;;;;;;;;;;;8.23;100.00;95061.16;5084687;28;20267;-70
2023/10/28 01:47:41;;;;;;;;;;;;;;;8.24;100.00;95061.94;5084023;28;19956;-70
2023/10/28 01:50:07;;;;;;;;;;;;;;;8.24;100.00;95060.13;5083938;28;20140;-70
2023/10/28 01:52:34;;;;;;;;;;;;;;;8.23;100.00;95058.56;5085029;28;19962;-70
2023/10/28 01:55:00;;;;;;;;;;;;;;;8.23;100.00;95062.97;5084932;28;20260;-70
2023/10/28 01:57:25;;;;;;;;;;;;;;;8.21;100.00;95063.22;5084844;28;19954;-71
2023/10/28 01:59:52;;;;;;;;;;;;;;;8.22;100.00;95066.63;5084680;28;20028;-71
2023/10/28 02:02:18;;;;;;;;;;;;;;;8.20;100.00;95060.84;5083597;28;19949;-71
2023/10/28 02:04:44;;;;;;;;;;;;;;;8.20;100.00;95064.22;5084753;28;19973;-71
2023/10/28 02:07:09;;;;;;;;;;;;;;;8.17;100.00;95064.72;5084291;28;19952;-70
2023/10/28 02:09:35;;;;;;;;;;;;;;;8.19;100.00;95061.84;5084742;28;19957;-71
2023/10/28 02:12:04;;;;;;;;;;;;;;;8.18;100.00;95073.34;5083735;28;20276;-71
2023/10/28 02:14:31;;;;;;;;;;;;;;;8.19;100.00;95072.28;5084308;28;19962;-80
2023/10/28 02:16:57;;;;;;;;;;;;;;;8.19;100.00;95065.28;5084818;28;19958;-80
2023/10/28 02:19:22;;;;;;;;;;;;;;;8.20;100.00;95066.06;5083638;28;20238;-80
2023/10/28 02:21:49;;;;;;;;;;;;;;;8.18;100.00;95068.91;5084362;28;19993;-80
2023/10/28 02:24:16;;;;;;;;;;;;;;;8.20;100.00;95068.66;5084322;28;19950;-79
2023/10/28 02:26:43;;;;;;;;;;;;;;;8.19;100.00;95067.06;5084340;28;20234;-82
2023/10/28 02:29:09;;;;;;;;;;;;;;;8.19;100.00;95067.06;5084636;28;19957;-79
2023/10/28 02:31:34;;;;;;;;;;;;;;;8.20;100.00;95059.00;5084478;28;19949;-79
2023/10/28 02:34:00;;;;;;;;;;;;;;;8.22;100.00;95071.84;5084432;28;19956;-72
2023/10/28 02:36:27;;;;;;;;;;;;;;;8.23;100.00;95070.78;5083101;28;19958;-72
2023/10/28 02:38:52;;;;;;;;;;;;;;;8.25;100.00;95072.16;5083885;28;20131;-71
2023/10/28 02:41:18;;;;;;;;;;;;;;;8.26;100.00;95068.50;5084134;28;20019;-71
2023/10/28 02:43:44;;;;;;;;;;;;;;;8.26;100.00;95068.50;5084185;28;19949;-72
2023/10/28 02:46:10;;;;;;;;;;;;;;;8.26;100.00;95071.13;5084535;28;19962;-72
2023/10/28 02:48:36;;;;;;;;;;;;;;;8.28;100.00;95073.50;5082816;28;19958;-70
2023/10/28 02:51:05;;;;;;;;;;;;;;;8.27;100.00;95067.50;5083963;28;20240;-72
2023/10/28 02:53:31;;;;;;;;;;;;;;;8.28;100.00;95065.66;5084121;28;19955;-72
2023/10/28 02:55:57;;;;;;;;;;;;;;;8.28;100.00;95074.28;5084066;28;19991;-72
2023/10/28 02:58:23;;;;;;;;;;;;;;;8.31;100.00;95080.84;5084061;28;19961;-72
2023/10/28 03:00:49;;;;;;;;;;;;;;;8.30;100.00;95074.06;5084078;28;19989;-72
2023/10/28 03:03:15;;;;;;;;;;;;;;;8.30;100.00;95067.00;5087736;28;20270;-72
2023/10/28 03:05:41;;;;;;;;;;;;;;;8.31;100.00;95075.63;5087819;28;20023;-74
2023/10/28 03:08:06;;;;;;;;;;;;;;;8.30;100.00;95084.50;5088060;28;19944;-72
2023/10/28 03:10:32;;;;;;;;;;;;;;;8.32;100.00;95079.84;5087605;28;19962;-71
2023/10/28 03:12:58;;;;;;;;;;;;;;;8.32;100.00;95075.41;5087877;28;19968;-71
2023/10/28 03:15:24;;;;;;;;;;;;;;;8.33;100.00;95084.81;5087724;28;19958;-71
2023/10/28 03:17:50;;;;;;;;;;;;;;;8.33;100.00;95089.25;5087560;28;19956;-71
2023/10/28 03:20:19;;;;;;;;;;;;;;;8.32;100.00;95083.22;5086223;28;20122;-71
2023/10/28 03:22:45;;;;;;;;;;;;;;;8.34;100.00;95080.41;5087889;28;19959;-71
2023/10/28 03:25:10;;;;;;;;;;;;;;;8.36;100.00;95080.13;5087855;28;19956;-77
2023/10/28 03:27:36;;;;;;;;;;;;;;;8.37;100.00;95084.34;5087809;28;19946;-80
2023/10/28 03:30:02;;;;;;;;;;;;;;;8.36;100.00;95077.53;5086245;28;20240;-70
2023/10/28 03:32:28;;;;;;;;;;;;;;;8.37;100.00;95085.13;5086160;28;19955;-70
2023/10/28 03:34:54;;;;;;;;;;;;;;;8.37;100.00;95089.56;5085860;28;19965;-70
2023/10/28 03:37:20;;;;;;;;;;;;;;;8.38;100.00;95084.13;5087469;28;20128;-70
2023/10/28 03:39:46;;;;;;;;;;;;;;;8.40;100.00;95096.91;5087414;28;19935;-71
2023/10/28 03:42:12;;;;;;;;;;;;;;;8.40;100.00;95086.47;5087071;28;19957;-70
2023/10/28 03:44:38;;;;;;;;;;;;;;;8.42;100.00;95079.22;5087433;28;20249;-77
2023/10/28 03:47:05;;;;;;;;;;;;;;;8.43;100.00;95088.66;5086997;28;19955;-71
2023/10/28 03:49:31;;;;;;;;;;;;;;;8.44;100.00;95083.19;5087024;28;19950;-71
2023/10/28 03:51:56;;;;;;;;;;;;;;;8.44;100.00;95083.19;5087165;28;19971;-71
2023/10/28 03:54:22;;;;;;;;;;;;;;;8.44;100.00;95085.00;5085941;28;19997;-71
2023/10/28 03:56:49;;;;;;;;;;;;;;;8.46;100.00;95088.16;5085760;28;20249;-71
2023/10/28 03:59:15;;;;;;;;;;;;;;;8.45;100.00;95086.59;5087070;28;19958;-71
2023/10/28 04:01:41;;;;;;;;;;;;;;;8.44;100.00;95091.03;5087119;28;19952;-80
2023/10/28 04:04:07;;;;;;;;;;;;;;;8.42;100.00;95087.88;5086575;28;20166;-72
2023/10/28 04:06:33;;;;;;;;;;;;;;;8.42;100.00;95085.25;5085629;28;19964;-70
2023/10/28 04:08:59;;;;;;;;;;;;;;;8.42;100.00;95081.81;5086907;28;19932;-70
2023/10/28 04:11:25;;;;;;;;;;;;;;;8.41;100.00;95088.88;5085913;28;19965;-70
2023/10/28 04:13:51;;;;;;;;;;;;;;;8.42;100.00;95092.28;5085575;28;19957;-70
2023/10/28 04:16:18;;;;;;;;;;;;;;;8.40;100.00;95089.91;5086446;28;19961;-70
2023/10/28 04:18:44;;;;;;;;;;;;;;;8.39;100.00;95090.13;5086429;28;19957;-71
2023/10/28 04:21:10;;;;;;;;;;;;;;;8.37;100.00;95085.13;5086460;28;19952;-77
2023/10/28 04:23:35;;;;;;;;;;;;;;;8.34;100.00;95078.56;5086452;28;19959;-74
2023/10/28 04:26:02;;;;;;;;;;;;;;;8.32;100.00;95078.00;5086419;28;19997;-74
2023/10/28 04:28:28;;;;;;;;;;;;;;;8.30;100.00;95087.13;5086627;28;19979;-74
2023/10/28 04:30:58;;;;;;;;;;;;;;;8.27;100.00;95091.00;5068480;28;20236;-74
2023/10/28 04:33:24;;;;;;;;;;;;;;;8.23;100.00;95089.88;5086440;28;20259;-74
2023/10/28 04:35:53;;;;;;;;;;;;;;;8.20;100.00;95092.16;5086302;28;20158;-74
2023/10/28 04:38:19;;;;;;;;;;;;;;;8.17;100.00;95088.22;5085964;28;19974;-70
2023/10/28 04:40:45;;;;;;;;;;;;;;;8.17;100.00;95087.41;5086201;28;19950;-79
2023/10/28 04:43:12;;;;;;;;;;;;;;;8.14;100.00;95092.06;5086334;28;19999;-70
2023/10/28 04:45:44;;;;;;;;;;;;;;;8.11;100.00;95083.94;5086400;28;19961;-70
2023/10/28 04:48:10;;;;;;;;;;;;;;;8.11;100.00;95089.94;5085893;28;19961;-70
2023/10/28 04:50:36;;;;;;;;;;;;;;;8.08;100.00;95085.19;5085935;28;19959;-70
2023/10/28 04:53:02;;;;;;;;;;;;;;;8.05;100.00;95084.88;5086013;28;19963;-70
2023/10/28 04:55:27;;;;;;;;;;;;;;;8.01;100.00;95087.16;5085871;28;19952;-70
2023/10/28 04:57:53;;;;;;;;;;;;;;;8.00;100.00;95079.53;5085958;28;20259;-71
2023/10/28 05:00:19;;;;;;;;;;;;;;;7.99;100.00;95081.38;5086190;28;19954;-70
2023/10/28 05:02:45;;;;;;;;;;;;;;;7.96;100.00;95071.41;5084411;28;19955;-71
2023/10/28 05:05:13;;;;;;;;;;;;;;;7.96;100.00;95071.41;5085283;28;19946;-71
2023/10/28 05:07:40;;;;;;;;;;;;;;;7.96;100.00;95073.22;5085806;28;20259;-70
2023/10/28 05:10:06;;;;;;;;;;;;;;;7.95;100.00;95074.25;5085313;28;19946;-70
2023/10/28 05:12:32;;;;;;;;;;;;;;;7.92;100.00;95070.28;5085446;28;19962;-70
2023/10/28 05:14:59;;;;;;;;;;;;;;;7.89;100.00;95066.31;5085310;28;19957;-72
2023/10/28 05:17:27;;;;;;;;;;;;;;;7.86;100.00;95069.41;5085034;28;19964;-72
2023/10/28 05:19:53;;;;;;;;;;;;;;;7.83;100.00;95069.88;5084230;28;19962;-72
2023/10/28 05:22:19;;;;;;;;;;;;;;;7.81;100.00;95068.50;5085509;28;19955;-72
2023/10/28 05:24:45;;;;;;;;;;;;;;;7.79;100.00;95065.34;5084589;28;19956;-72
2023/10/28 05:27:11;;;;;;;;;;;;;;;7.77;100.00;95070.81;5085015;28;19960;-72
2023/10/28 05:29:38;;;;;;;;;;;;;;;7.76;100.00;95071.03;5085406;28;19974;-71
2023/10/28 05:32:04;;;;;;;;;;;;;;;7.73;100.00;95080.13;5085198;28;20126;-72
2023/10/28 05:34:29;;;;;;;;;;;;;;;7.70;100.00;95083.19;5084711;28;20128;-79
2023/10/28 05:36:55;;;;;;;;;;;;;;;7.68;100.00;95082.63;5085427;28;19955;-72
2023/10/28 05:39:21;;;;;;;;;;;;;;;7.69;100.00;95082.41;5084761;28;20239;-72
2023/10/28 05:41:47;;;;;;;;;;;;;;;7.70;100.00;95080.59;5084776;28;19952;-73
2023/10/28 05:44:14;;;;;;;;;;;;;;;7.70;100.00;95091.03;5084735;28;19959;-72
2023/10/28 05:46:40;;;;;;;;;;;;;;;7.71;100.00;95095.25;5084619;28;19957;-72
2023/10/28 05:49:06;;;;;;;;;;;;;;;7.73;100.00;95093.97;5084782;28;19954;-72
2023/10/28 05:51:36;;;;;;;;;;;;;;;7.76;100.00;95099.75;5084818;28;20011;-72
2023/10/28 05:54:05;;;;;;;;;;;;;;;7.76;100.00;95100.53;5066704;28;19963;-73
2023/10/28 05:56:31;;;;;;;;;;;;;;;7.79;100.00;95101.88;5084913;28;19960;-70
2023/10/28 05:58:58;;;;;;;;;;;;;;;7.78;100.00;95100.31;5083498;28;19959;-70
2023/10/28 06:01:24;;;;;;;;;;;;;;;7.78;100.00;95103.69;5084805;28;20240;-70
2023/10/28 06:03:50;;;;;;;;;;;;;;;7.78;100.00;95101.09;5084798;28;19942;-70
2023/10/28 06:06:16;;;;;;;;;;;;;;;7.79;100.00;95107.09;5084953;28;19995;-70
2023/10/28 06:08:42;;;;;;;;;;;;;;;7.80;100.00;95108.69;5084793;28;19958;-70
2023/10/28 06:11:09;;;;;;;;;;;;;;;7.82;100.00;95119.69;5084315;28;19956;-72
2023/10/28 06:13:35;;;;;;;;;;;;;;;7.83;100.00;95127.31;5083440;28;19969;-71
2023/10/28 06:16:01;;;;;;;;;;;;;;;7.87;100.00;95135.44;5084269;28;19958;-70
2023/10/28 06:18:27;;;;;;;;;;;;;;;7.91;100.00;95128.72;5083382;28;19961;-70
2023/10/28 06:20:53;;;;;;;;;;;;;;;7.99;100.00;95140.63;5084585;28;19995;-70
2023/10/28 06:23:19;;;;;;;;;;;;;;;8.05;100.00;95134.47;5084511;28;19959;-70
2023/10/28 06:25:45;;;;;;;;;;;;;;;8.09;100.00;95136.38;5082748;28;20250;-71
2023/10/28 06:28:10;;;;;;;;;;;;;;;8.16;100.00;95144.06;5083151;28;20178;-70
2023/10/28 06:30:44;;;;;;;;;;;;;;;8.22;100.00;95142.34;5082972;28;19958;-74
2023/10/28 06:33:12;;;;;;;;;;;;;;;8.24;100.00;95148.91;5083903;28;19963;-75
2023/10/28 06:35:37;;;;;;;;;;;;;;;8.26;100.00;95146.06;5084338;28;19958;-74
2023/10/28 06:38:03;;;;;;;;;;;;;;;8.28;100.00;95144.81;5082755;28;19965;-74
2023/10/28 06:40:29;;;;;;;;;;;;;;;8.30;100.00;95147.97;5084411;28;20248;-75
2023/10/28 06:42:56;;;;;;;;;;;;;;;8.33;100.00;95157.94;5084046;28;20266;-75
2023/10/28 06:45:22;;;;;;;;;;;;;;;8.36;100.00;95159.31;5084447;28;20005;-74
2023/10/28 06:47:48;;;;;;;;;;;;;;;8.39;100.00;95156.22;5082752;28;20244;-71
2023/10/28 06:50:19;;;;;;;;;;;;;;;8.40;100.00;95155.19;5084403;28;19956;-71
2023/10/28 06:52:48;;;;;;;;;;;;;;;8.43;100.00;95157.34;5084260;28;20143;-71
2023/10/28 06:55:14;;;;;;;;;;;;;;;8.44;100.00;95164.19;5082732;28;19969;-70
2023/10/28 06:57:41;;;;;;;;;;;;;;;8.45;100.00;95170.19;5082820;28;19957;-71
2023/10/28 07:00:12;;;;;;;;;;;;;;;8.47;100.00;95175.97;5083928;28;19969;-70
2023/10/28 07:02:39;;;;;;;;;;;;;;;8.47;100.00;95178.59;5084413;28;19961;-70
2023/10/28 07:05:04;;;;;;;;;;;;;;;8.48;100.00;95172.31;5083741;28;20304;-70
2023/10/28 07:07:30;;;;;;;;;;;;;;;8.49;100.00;95173.91;5083276;28;20233;-71
2023/10/28 07:09:57;;;;;;;;;;;;;;;8.51;100.00;95190.16;5083806;28;19959;-72
2023/10/28 07:12:22;;;;;;;;;;;;;;;8.53;100.00;95190.72;5083983;28;19964;-73
2023/10/28 07:14:48;;;;;;;;;;;;;;;8.56;100.00;95184.22;5084095;28;20235;-72
2023/10/28 07:17:14;;;;;;;;;;;;;;;8.59;100.00;95181.13;5083931;28;20001;-72
2023/10/28 07:19:40;;;;;;;;;;;;;;;8.63;100.00;95188.28;5083921;28;20238;-72
2023/10/28 07:22:09;;;;;;;;;;;;;;;8.67;100.00;95194.63;5083904;28;19952;-72
2023/10/28 07:24:35;;;;;;;;;;;;;;;8.74;100.00;95197.84;5083354;28;19958;-72
2023/10/28 07:27:04;;;;;;;;;;;;;;;8.77;100.00;95201.03;5083391;28;19939;-71
2023/10/28 07:29:30;;;;;;;;;;;;;;;8.78;100.00;95206.03;5084059;28;19959;-71
2023/10/28 07:31:57;;;;;;;;;;;;;;;8.77;100.00;95214.09;5083435;28;19948;-71
2023/10/28 07:34:22;;;;;;;;;;;;;;;8.77;100.00;95208.88;5083753;28;19970;-71
2023/10/28 07:36:48;;;;;;;;;;;;;;;8.79;100.00;95210.22;5083410;28;19951;-71
2023/10/28 07:39:15;;;;;;;;;;;;;;;8.81;100.00;95217.81;5083726;28;19960;-71
2023/10/28 07:41:41;;;;;;;;;;;;;;;8.86;100.00;95220.50;5083872;28;19954;-71
2023/10/28 07:44:07;;;;;;;;;;;;;;;8.92;100.00;95222.19;5083849;28;19958;-71
2023/10/28 07:46:33;;;;;;;;;;;;;;;9.03;100.00;95212.66;5083654;28;20230;-81
2023/10/28 07:48:59;;;;;;;;;;;;;;;9.16;100.00;95222.03;5085014;28;20021;-80
2023/10/28 07:51:26;;;;;;;;;;;;;;;9.22;100.00;95215.81;5087515;28;19951;-81
2023/10/28 07:53:52;;;;;;;;;;;;;;;9.23;100.00;95227.88;5086534;28;19977;-80
2023/10/28 07:56:18;;;;;;;;;;;;;;;9.22;100.00;95240.19;5085634;28;19948;-80
2023/10/28 07:58:44;;;;;;;;;;;;;;;9.21;100.00;95240.41;5086675;28;19948;-80
2023/10/28 08:01:16;;;;;;;;;;;;;;;9.22;100.00;95232.34;5086058;28;19968;-70
2023/10/28 08:03:43;;;;;;;;;;;;;;;9.23;100.00;95246.19;5086906;28;19949;-81
2023/10/28 08:06:13;;;;;;;;;;;;;;;9.24;100.00;95245.16;5085628;28;20267;-72
2023/10/28 08:08:39;;;;;;;;;;;;;;;9.23;100.00;95240.97;5086697;28;20241;-72
2023/10/28 08:11:08;;;;;;;;;;;;;;;9.24;100.00;95235.50;5086737;28;20030;-72
2023/10/28 08:13:34;;;;;;;;;;;;;;;9.25;100.00;95242.31;5086731;28;20135;-72
2023/10/28 08:16:01;;;;;;;;;;;;;;;9.28;100.00;95235.81;5086722;28;19982;-72
2023/10/28 08:18:30;;;;;;;;;;;;;;;9.29;100.00;95232.16;5086802;28;19956;-72
2023/10/28 08:20:56;;;;;;;;;;;;;;;9.32;100.00;95235.09;5086692;28;19980;-72
2023/10/28 08:23:21;;;;;;;;;;;;;;;9.35;100.00;95247.69;5086784;28;19932;-72
2023/10/28 08:25:47;;;;;;;;;;;;;;;9.39;100.00;95248.00;5086627;28;19956;-72
2023/10/28 08:28:13;;;;;;;;;;;;;;;9.43;100.00;95245.69;5086228;28;19986;-72
2023/10/28 08:30:39;;;;;;;;;;;;;;;9.48;100.00;95245.78;5085966;28;19966;-72
2023/10/28 08:33:08;;;;;;;;;;;;;;;9.54;100.00;95235.16;5086390;28;20136;-72
2023/10/28 08:35:34;;;;;;;;;;;;;;;9.63;100.00;95247.81;5085289;28;19958;-72
2023/10/28 08:38:05;;;;;;;;;;;;;;;9.71;100.00;95235.09;5084931;28;19959;-71
2023/10/28 08:40:31;;;;;;;;;;;;;;;9.77;100.00;95243.81;5086537;28;19954;-70
2023/10/28 08:42:58;;;;;;;;;;;;;;;9.79;100.00;95236.53;5086217;28;19961;-71
2023/10/28 08:45:25;;;;;;;;;;;;;;;9.82;100.00;95230.78;5086319;28;19947;-71
2023/10/28 08:47:51;;;;;;;;;;;;;;;9.82;100.00;95236.03;5085045;28;20240;-71
2023/10/28 08:50:18;;;;;;;;;;;;;;;9.83;100.00;95248.09;5085683;28;19934;-71
2023/10/28 08:52:45;;;;;;;;;;;;;;;9.85;100.00;95239.97;5084445;28;20263;-71
2023/10/28 08:55:11;;;;;;;;;;;;;;;9.90;100.00;95247.91;5086202;28;19954;-71
2023/10/28 08:57:40;;;;;;;;;;;;;;;9.91;100.00;95242.44;5085655;28;19982;-73
2023/10/28 09:00:14;;;;;;;;;;;;;;;9.94;100.00;95244.56;5085348;28;19973;-74
2023/10/28 09:02:48;;;;;;;;;;;;;;;9.95;100.00;95251.41;5085593;28;19955;-74
2023/10/28 09:05:15;;;;;;;;;;;;;;;9.97;100.00;95245.91;5067970;28;20140;-75
2023/10/28 09:07:43;;;;;;;;;;;;;;;10.01;100.00;95248.84;5085728;28;20235;-74
2023/10/28 09:10:10;;;;;;;;;;;;;;;10.04;100.00;95250.97;5085708;28;19962;-74
2023/10/28 09:12:36;;;;;;;;;;;;;;;10.08;100.00;95257.28;5085604;28;19953;-74
2023/10/28 09:15:03;;;;;;;;;;;;;;;10.12;100.00;95261.00;5085165;28;20156;-75
2023/10/28 09:17:30;;;;;;;;;;;;;;;10.14;100.00;95258.94;5085911;28;19958;-71
2023/10/28 09:19:56;;;;;;;;;;;;;;;10.18;100.00;95246.94;5085746;28;19959;-71
2023/10/28 09:22:25;;;;;;;;;;;;;;;10.21;100.00;95230.75;5084888;28;19964;-71
2023/10/28 09:24:55;;;;;;;;;;;;;;;10.28;100.00;95241.81;5085057;28;19956;-70
2023/10/28 09:27:21;;;;;;;;;;;;;;;10.42;100.00;95249.34;5085137;28;20114;-71
2023/10/28 09:29:47;;;;;;;;;;;;;;;10.51;100.00;95246.03;5085171;28;20118;-71
2023/10/28 09:32:13;;;;;;;;;;;;;;;10.60;100.00;95243.75;5084801;28;19958;-71
2023/10/28 09:34:39;;;;;;;;;;;;;;;10.71;100.00;95240.19;5085070;28;19968;-72
2023/10/28 09:37:06;;;;;;;;;;;;;;;10.80;100.00;95247.63;5085149;28;20152;-72
2023/10/28 09:39:36;;;;;;;;;;;;;;;10.86;100.00;95236.13;5085193;28;19960;-72
2023/10/28 09:42:02;;;;;;;;;;;;;;;10.90;100.00;95224.13;5084619;28;20232;-73
2023/10/28 09:44:28;;;;;;;;;;;;;;;10.94;100.00;95235.66;5084662;28;19978;-72
2023/10/28 09:46:58;;;;;;;;;;;;;;;10.96;100.00;95223.09;5085276;28;20228;-73
2023/10/28 09:49:27;;;;;;;;;;;;;;;11.01;100.00;95244.13;5084663;28;20106;-73
2023/10/28 09:51:56;;;;;;;;;;;;;;;11.05;100.00;95234.72;5084656;28;19969;-71
2023/10/28 09:54:25;;;;;;;;;;;;;;;11.09;100.00;95220.06;5083359;28;19962;-73
2023/10/28 09:56:53;;;;;;;;;;;;;;;11.11;100.00;95222.44;5084706;28;19956;-73
2023/10/28 09:59:20;;;;;;;;;;;;;;;11.11;100.00;95215.34;5084602;28;20270;-73
2023/10/28 10:02:11;;;;;;;;;;;;;;;11.14;100.00;95235.84;5084693;28;19954;-72
2023/10/28 10:04:47;;;;;;;;;;;;;;;11.20;100.00;95241.13;5084740;28;19942;-73
2023/10/28 10:07:13;;;;;;;;;;;;;;;11.25;100.00;95235.91;5084781;28;19949;-73
2023/10/28 10:09:39;;;;;;;;;;;;;;;11.33;100.00;95241.47;5083202;28;20261;-72
2023/10/28 10:12:05;;;;;;;;;;;;;;;11.41;100.00;95234.97;5083679;28;19955;-73
2023/10/28 10:14:32;;;;;;;;;;;;;;;11.48;100.00;95232.13;5083334;28;19960;-73
2023/10/28 10:17:16;;;;;;;;;;;;;;;11.53;100.00;95238.22;5084428;28;19955;-73
2023/10/28 10:19:42;;;;;;;;;;;;;;;11.57;100.00;95249.78;5084586;28;19951;-73
2023/10/28 10:22:08;;;;;;;;;;;;;;;11.56;100.00;95236.91;5084500;28;19982;-73
2023/10/28 10:24:34;;;;;;;;;;;;;;;11.55;100.00;95224.84;5083222;28;19958;-73
2023/10/28 10:27:01;;;;;;;;;;;;;;;11.53;100.00;95248.72;5084343;28;19960;-73
2023/10/28 10:29:29;;;;;;;;;;;;;;;11.51;100.00;95224.53;5084761;28;20132;-81
2023/10/28 10:31:56;;;;;;;;;;;;;;;11.52;100.00;95241.88;5083972;28;19953;-73
2023/10/28 10:34:37;;;;;;;;;;;;;;;11.51;100.00;95224.53;5083918;28;19971;-72
2023/10/28 10:37:03;;;;;;;;;;;;;;;11.53;100.00;95232.19;5084062;28;19960;-73
2023/10/28 10:39:41;;;;;;;;;;;;;;;11.56;100.00;95231.66;5084362;28;20275;-73
2023/10/28 10:42:07;;;;;;;;;;;;;;;11.60;100.00;95221.44;5084314;28;19945;-73
2023/10/28 10:44:34;;;;;;;;;;;;;;;11.60;100.00;95216.97;5084751;28;20110;-73
2023/10/28 10:47:01;;;;;;;;;;;;;;;11.61;100.00;95236.94;5084313;28;19953;-73
2023/10/28 10:49:30;;;;;;;;;;;;;;;11.61;100.00;95225.63;5083707;28;19964;-75
2023/10/28 10:51:56;;;;;;;;;;;;;;;11.59;100.00;95241.66;5084161;28;19940;-75
2023/10/28 10:54:27;;;;;;;;;;;;;;;11.56;100.00;95250.81;5083659;28;19960;-75
2023/10/28 10:56:53;;;;;;;;;;;;;;;11.56;100.00;95245.56;5083731;28;19955;-75
2023/10/28 10:59:19;;;;;;;;;;;;;;;11.57;100.00;95238.50;5082593;28;19962;-75
2023/10/28 11:01:46;;;;;;;;;;;;;;;11.61;100.00;95205.41;5083841;28;19961;-75
2023/10/28 11:04:12;;;;;;;;;;;;;;;11.69;100.00;95238.28;5084210;28;19960;-75
2023/10/28 11:06:38;;;;;;;;;;;;;;;11.76;100.00;95223.13;5083904;28;20025;-73
2023/10/28 11:09:05;;;;;;;;;;;;;;;11.84;100.00;95211.31;5082665;28;19963;-81
2023/10/28 11:11:35;;;;;;;;;;;;;;;11.89;100.00;95227.94;5084050;28;19951;-81
2023/10/28 11:14:04;;;;;;;;;;;;;;;11.92;100.00;95195.09;5083987;28;19967;-81
2023/10/28 11:16:31;;;;;;;;;;;;;;;11.89;100.00;95170.13;5084016;28;19956;-79
2023/10/28 11:18:57;;;;;;;;;;;;;;;11.90;100.00;95195.34;5066329;28;19970;-82
2023/10/28 11:21:23;;;;;;;;;;;;;;;11.91;100.00;95185.66;5083600;28;19951;-80
2023/10/28 11:23:49;;;;;;;;;;;;;;;11.91;100.00;95177.78;5085789;28;20145;-72
2023/10/28 11:26:19;;;;;;;;;;;;;;;11.91;100.00;95185.66;5087462;28;19959;-73
2023/10/28 11:28:45;;;;;;;;;;;;;;;11.91;100.00;95194.31;5087251;28;20207;-72
2023/10/28 11:31:11;;;;;;;;;;;;;;;11.92;100.00;95180.13;5087388;28;19954;-72
2023/10/28 11:33:37;;;;;;;;;;;;;;;11.91;100.00;95198.78;5087332;28;19968;-72
2023/10/28 11:36:04;;;;;;;;;;;;;;;11.88;100.00;95189.56;5087328;28;19957;-72
2023/10/28 11:38:33;;;;;;;;;;;;;;;11.87;100.00;95208.97;5087563;28;19948;-73
2023/10/28 11:41:04;;;;;;;;;;;;;;;11.88;100.00;95186.13;5087467;28;19951;-72
2023/10/28 11:43:30;;;;;;;;;;;;;;;11.88;100.00;95162.47;5087495;28;19947;-74
2023/10/28 11:45:55;;;;;;;;;;;;;;;11.90;100.00;95176.19;5087621;28;20081;-81
2023/10/28 11:48:21;;;;;;;;;;;;;;;11.89;100.00;95146.50;5087539;28;20134;-80
2023/10/28 11:50:47;;;;;;;;;;;;;;;11.89;100.00;95167.50;5069063;28;20272;-80
2023/10/28 11:53:17;;;;;;;;;;;;;;;11.86;100.00;95182.97;5086019;28;19956;-81
2023/10/28 11:55:45;;;;;;;;;;;;;;;11.82;100.00;95156.41;5085780;28;19954;-81
2023/10/28 11:58:10;;;;;;;;;;;;;;;11.81;100.00;95177.69;5086875;28;19955;-81
2023/10/28 12:00:36;;;;;;;;;;;;;;;11.78;100.00;95150.91;5068935;28;19960;-74
2023/10/28 12:03:05;;;;;;;;;;;;;;;11.78;100.00;95165.88;5086406;28;20240;-81
2023/10/28 12:05:33;;;;;;;;;;;;;;;11.77;100.00;95190.53;5069041;28;19950;-80
2023/10/28 12:07:59;;;;;;;;;;;;;;;11.77;100.00;95185.28;5086979;28;19963;-81
2023/10/28 12:10:25;;;;;;;;;;;;;;;11.77;100.00;95185.28;5086990;28;20140;-80
2023/10/28 12:12:51;;;;;;;;;;;;;;;11.81;100.00;95203.97;5085111;28;19989;-81
2023/10/28 12:15:17;;;;;;;;;;;;;;;11.82;100.00;95187.16;5085599;28;19967;-82
2023/10/28 12:17:44;;;;;;;;;;;;;;;11.86;100.00;95182.97;5085732;28;19993;-81
2023/10/28 12:20:14;;;;;;;;;;;;;;;11.88;100.00;95186.13;5068934;28;20004;-80
2023/10/28 12:22:40;;;;;;;;;;;;;;;11.88;100.00;95197.44;5085458;28;19970;-74
2023/10/28 12:25:09;;;;;;;;;;;;;;;11.87;100.00;95211.59;5086138;28;19959;-73
2023/10/28 12:27:36;;;;;;;;;;;;;;;11.88;100.00;95210.56;5086713;28;19977;-72
2023/10/28 12:30:06;;;;;;;;;;;;;;;11.92;100.00;95208.22;5086555;28;19961;-73
2023/10/28 12:32:32;;;;;;;;;;;;;;;11.97;100.00;95201.16;5085101;28;19955;-73
2023/10/28 12:34:57;;;;;;;;;;;;;;;12.04;100.00;95205.41;5085655;28;19961;-73
2023/10/28 12:37:25;;;;;;;;;;;;;;;12.11;100.00;95211.19;5086485;28;19957;-72
2023/10/28 12:39:51;;;;;;;;;;;;;;;12.16;100.00;95184.94;5085894;28;19941;-81